Time,TemperatureF,DewpointF,PressureIn,WindDirection,WindDirectionDegrees,WindSpeedMPH,WindSpeedGustMPH,Humidity,HourlyPrecipIn,Conditions,Clouds,dailyrainin,SolarRadiationWatts/m^2,SoftwareType,DateUTC
2015-08-27 00:10:00,73.9,74.0,29.93,South,173,0.0,-999.0,99,-99.99,,,0.00,0,weatherlink.com 1.10,2015-08-27 04:10:00,
2015-08-27 00:25:00,73.7,73.0,29.93,South,173,0.0,-999.0,99,-99.99,,,0.00,0,weatherlink.com 1.10,2015-08-27 04:25:00,
2015-08-27 00:41:00,73.5,74.0,29.92,South,173,0.0,-999.0,100,-99.99,,,0.00,0,weatherlink.com 1.10,2015-08-27 04:41:00,
2015-08-27 00:56:00,73.3,73.0,29.91,South,173,0.0,-999.0,100,-99.99,,,0.00,0,weatherlink.com 1.10,2015-08-27 04:56:00,
2015-08-27 01:11:00,73.2,73.0,29.91,South,173,0.0,-999.0,100,-99.99,,,0.00,0,weatherlink.com 1.10,2015-08-27 05:11:00,
2015-08-27 01:26:00,73.2,73.0,29.91,South,173,0.0,-999.0,100,-99.99,,,0.00,0,weatherlink.com 1.10,2015-08-27 05:26:00,
2015-08-27 01:41:00,73.3,73.0,29.91,South,173,0.0,-999.0,100,-99.99,,,0.00,0,weatherlink.com 1.10,2015-08-27 05:41:00,
2015-08-27 01:56:00,73.5,74.0,29.91,South,173,0.0,-999.0,100,-99.99,,,0.00,0,weatherlink.com 1.10,2015-08-27 05:56:00,
2015-08-27 02:11:00,73.9,74.0,29.90,South,174,0.0,-999.0,100,-99.99,,,0.00,0,weatherlink.com 1.10,2015-08-27 06:11:00,
2015-08-27 02:26:00,73.9,74.0,29.89,South,174,0.0,-999.0,100,-99.99,,,0.00,0,weatherlink.com 1.10,2015-08-27 06:26:00,
2015-08-27 02:41:00,74.0,74.0,29.90,SW,216,0.0,-999.0,100,-99.99,,,0.00,0,weatherlink.com 1.10,2015-08-27 06:41:00,
2015-08-27 02:56:00,74.4,74.0,29.89,South,189,0.0,-999.0,100,-99.99,,,0.00,0,weatherlink.com 1.10,2015-08-27 06:56:00,
2015-08-27 03:11:00,74.2,74.0,29.89,South,179,0.0,-999.0,100,-99.99,,,0.00,0,weatherlink.com 1.10,2015-08-27 07:11:00,
2015-08-27 03:26:00,74.2,74.0,29.87,South,179,0.0,-999.0,100,-99.99,,,0.00,0,weatherlink.com 1.10,2015-08-27 07:26:00,
2015-08-27 03:41:00,74.0,74.0,29.86,South,177,0.0,-999.0,100,-99.99,,,0.00,0,weatherlink.com 1.10,2015-08-27 07:41:00,
2015-08-27 03:56:00,73.7,74.0,29.86,South,177,0.0,-999.0,100,-99.99,,,0.00,0,weatherlink.com 1.10,2015-08-27 07:56:00,
2015-08-27 04:11:00,73.5,74.0,29.86,SSE,157,0.0,-999.0,100,-99.99,,,0.00,0,weatherlink.com 1.10,2015-08-27 08:11:00,
2015-08-27 04:26:00,73.5,74.0,29.85,SSE,158,0.0,-999.0,100,-99.99,,,0.00,0,weatherlink.com 1.10,2015-08-27 08:26:00,
2015-08-27 04:41:00,73.3,73.0,29.85,SSE,168,0.0,-999.0,100,-99.99,,,0.00,0,weatherlink.com 1.10,2015-08-27 08:41:00,
2015-08-27 04:56:00,73.3,73.0,29.85,South,170,0.0,-999.0,100,-99.99,,,0.00,0,weatherlink.com 1.10,2015-08-27 08:56:00,
2015-08-27 05:11:00,73.3,73.0,29.87,South,170,0.0,-999.0,100,-99.99,,,0.00,0,weatherlink.com 1.10,2015-08-27 09:11:00,
2015-08-27 05:26:00,73.3,73.0,29.88,South,170,0.0,-999.0,100,-99.99,,,0.00,0,weatherlink.com 1.10,2015-08-27 09:26:00,
2015-08-27 05:41:00,73.3,73.0,29.88,South,171,0.0,-999.0,100,-99.99,,,0.00,0,weatherlink.com 1.10,2015-08-27 09:41:00,
2015-08-27 05:56:00,73.3,73.0,29.89,ENE,78,0.0,-999.0,100,-99.99,,,0.00,0,weatherlink.com 1.10,2015-08-27 09:56:00,
2015-08-27 06:11:00,73.3,73.0,29.89,ENE,78,0.0,-999.0,100,-99.99,,,0.00,0,weatherlink.com 1.10,2015-08-27 10:11:00,
2015-08-27 06:26:00,73.3,73.0,29.89,ENE,78,0.0,-999.0,100,-99.99,,,0.00,0,weatherlink.com 1.10,2015-08-27 10:26:00,
2015-08-27 06:41:00,73.2,73.0,29.89,ENE,78,0.0,-999.0,100,-99.99,,,0.00,0,weatherlink.com 1.10,2015-08-27 10:41:00,
2015-08-27 06:56:00,73.2,73.0,29.89,East,80,0.0,-999.0,100,-99.99,,,0.00,0,weatherlink.com 1.10,2015-08-27 10:56:00,
2015-08-27 07:11:00,73.0,73.0,29.90,East,80,0.0,-999.0,100,-99.99,,,0.00,5,weatherlink.com 1.10,2015-08-27 11:11:00,
2015-08-27 07:26:00,73.0,73.0,29.90,East,79,0.0,-999.0,100,-99.99,,,0.00,16,weatherlink.com 1.10,2015-08-27 11:26:00,
2015-08-27 07:41:00,73.3,73.0,29.90,East,79,0.0,-999.0,100,-99.99,,,0.00,37,weatherlink.com 1.10,2015-08-27 11:41:00,
2015-08-27 07:56:00,73.9,74.0,29.90,East,79,0.0,-999.0,100,-99.99,,,0.00,25,weatherlink.com 1.10,2015-08-27 11:56:00,
2015-08-27 08:11:00,74.6,75.0,29.91,East,86,0.0,-999.0,100,-99.99,,,0.00,63,weatherlink.com 1.10,2015-08-27 12:11:00,
2015-08-27 08:26:00,75.1,75.0,29.91,South,186,0.0,-999.0,100,-99.99,,,0.00,93,weatherlink.com 1.10,2015-08-27 12:26:00,
2015-08-27 08:41:00,76.5,76.0,29.90,South,186,0.0,-999.0,99,-99.99,,,0.00,302,weatherlink.com 1.10,2015-08-27 12:41:00,
2015-08-27 08:56:00,77.7,76.0,29.90,SE,136,0.0,-999.0,93,-99.99,,,0.00,241,weatherlink.com 1.10,2015-08-27 12:56:00,
2015-08-27 09:11:00,78.8,76.0,29.90,SSE,147,0.0,-999.0,90,-99.99,,,0.00,320,weatherlink.com 1.10,2015-08-27 13:11:00,
2015-08-27 09:26:00,80.1,76.0,29.90,SE,129,0.0,-999.0,87,-99.99,,,0.00,422,weatherlink.com 1.10,2015-08-27 13:26:00,
2015-08-27 09:41:00,81.2,76.0,29.91,SE,142,0.0,-999.0,84,-99.99,,,0.00,517,weatherlink.com 1.10,2015-08-27 13:41:00,
2015-08-27 09:56:00,82.8,76.0,29.93,SSE,157,0.0,-999.0,80,-99.99,,,0.00,415,weatherlink.com 1.10,2015-08-27 13:56:00,
2015-08-27 10:11:00,83.2,77.0,29.93,SSE,165,0.0,-999.0,81,-99.99,,,0.00,473,weatherlink.com 1.10,2015-08-27 14:11:00,
2015-08-27 10:26:00,82.4,76.0,29.94,SSW,200,0.0,-999.0,81,-99.99,,,0.00,121,weatherlink.com 1.10,2015-08-27 14:26:00,
2015-08-27 10:41:00,80.7,76.0,29.95,SW,236,0.0,-999.0,85,-99.99,,,0.00,12,weatherlink.com 1.10,2015-08-27 14:41:00,
2015-08-27 10:57:00,78.6,76.0,29.95,WNW,298,0.0,-999.0,90,-99.99,,,0.03,18,weatherlink.com 1.10,2015-08-27 14:57:00,
2015-08-27 11:12:00,77.2,75.0,29.96,WNW,299,0.0,-999.0,94,-99.99,,,0.06,11,weatherlink.com 1.10,2015-08-27 15:12:00,
2015-08-27 11:27:00,76.5,75.0,29.96,WNW,298,0.0,-999.0,96,-99.99,,,0.07,11,weatherlink.com 1.10,2015-08-27 15:27:00,
2015-08-27 11:42:00,76.1,75.0,29.97,WNW,298,0.0,-999.0,97,-99.99,,,0.08,16,weatherlink.com 1.10,2015-08-27 15:42:00,
2015-08-27 11:57:00,75.1,74.0,29.96,WNW,298,0.0,-999.0,96,-99.99,,,0.09,30,weatherlink.com 1.10,2015-08-27 15:57:00,
2015-08-27 12:12:00,74.4,74.0,29.95,WNW,299,0.0,-999.0,97,-99.99,,,0.09,54,weatherlink.com 1.10,2015-08-27 16:12:00,
2015-08-27 12:27:00,75.6,75.0,29.95,SSE,161,0.0,-999.0,98,-99.99,,,0.09,90,weatherlink.com 1.10,2015-08-27 16:27:00,
2015-08-27 12:42:00,75.8,76.0,29.95,SSE,162,0.0,-999.0,99,-99.99,,,0.10,109,weatherlink.com 1.10,2015-08-27 16:42:00,
2015-08-27 12:57:00,75.3,75.0,29.96,SSE,162,0.0,-999.0,99,-99.99,,,0.10,121,weatherlink.com 1.10,2015-08-27 16:57:00,
2015-08-27 13:12:00,75.4,75.0,29.95,South,186,0.0,-999.0,99,-99.99,,,0.10,132,weatherlink.com 1.10,2015-08-27 17:12:00,
2015-08-27 13:27:00,75.8,75.0,29.94,SSE,161,0.0,-999.0,98,-99.99,,,0.11,153,weatherlink.com 1.10,2015-08-27 17:27:00,
2015-08-27 13:42:00,75.8,75.0,29.93,SSE,164,0.0,-999.0,98,-99.99,,,0.11,134,weatherlink.com 1.10,2015-08-27 17:42:00,
2015-08-27 13:57:00,76.0,75.0,29.94,SE,138,0.0,-999.0,98,-99.99,,,0.11,142,weatherlink.com 1.10,2015-08-27 17:57:00,
2015-08-27 14:12:00,76.5,76.0,29.93,SE,126,0.0,-999.0,98,-99.99,,,0.11,227,weatherlink.com 1.10,2015-08-27 18:12:00,
2015-08-27 14:27:00,77.2,77.0,29.92,ESE,121,1.0,-999.0,98,-99.99,,,0.11,548,weatherlink.com 1.10,2015-08-27 18:27:00,
2015-08-27 14:42:00,77.9,77.0,29.91,SSE,148,0.0,-999.0,97,-99.99,,,0.11,557,weatherlink.com 1.10,2015-08-27 18:42:00,
2015-08-27 14:57:00,79.0,78.0,29.92,West,268,0.0,-999.0,95,-99.99,,,0.11,311,weatherlink.com 1.10,2015-08-27 18:57:00,
2015-08-27 15:12:00,79.8,77.0,29.91,West,267,0.0,-999.0,92,-99.99,,,0.11,432,weatherlink.com 1.10,2015-08-27 19:12:00,
2015-08-27 15:27:00,80.3,77.0,29.90,ENE,59,0.0,-999.0,90,-99.99,,,0.11,473,weatherlink.com 1.10,2015-08-27 19:27:00,
2015-08-27 15:42:00,80.9,78.0,29.90,NW,319,0.0,-999.0,90,-99.99,,,0.11,443,weatherlink.com 1.10,2015-08-27 19:42:00,
2015-08-27 15:57:00,82.0,78.0,29.89,ENE,68,0.0,-999.0,87,-99.99,,,0.11,294,weatherlink.com 1.10,2015-08-27 19:57:00,
2015-08-27 16:12:00,81.2,77.0,29.89,ENE,62,0.0,-999.0,86,-99.99,,,0.11,264,weatherlink.com 1.10,2015-08-27 20:12:00,
2015-08-27 16:27:00,82.2,77.0,29.89,ENE,69,0.0,-999.0,84,-99.99,,,0.11,675,weatherlink.com 1.10,2015-08-27 20:27:00,
2015-08-27 16:42:00,83.2,76.0,29.88,SSE,165,0.0,-999.0,80,-99.99,,,0.11,596,weatherlink.com 1.10,2015-08-27 20:42:00,
2015-08-27 16:57:00,83.0,77.0,29.88,ESE,122,5.0,-999.0,82,-99.99,,,0.11,529,weatherlink.com 1.10,2015-08-27 20:57:00,
2015-08-27 17:12:00,82.8,77.0,29.89,ENE,74,0.0,-999.0,83,-99.99,,,0.11,285,weatherlink.com 1.10,2015-08-27 21:12:00,
2015-08-27 17:27:00,83.0,77.0,29.90,East,86,0.0,-999.0,81,-99.99,,,0.11,207,weatherlink.com 1.10,2015-08-27 21:27:00,
2015-08-27 17:42:00,82.4,76.0,29.89,SE,128,0.0,-999.0,82,-99.99,,,0.11,246,weatherlink.com 1.10,2015-08-27 21:42:00,
2015-08-27 17:57:00,82.8,76.0,29.90,SSE,161,0.0,-999.0,80,-99.99,,,0.11,223,weatherlink.com 1.10,2015-08-27 21:57:00,
2015-08-27 18:12:00,82.8,76.0,29.89,SSE,155,0.0,-999.0,80,-99.99,,,0.11,374,weatherlink.com 1.10,2015-08-27 22:12:00,
2015-08-27 18:27:00,82.6,76.0,29.89,SE,144,0.0,-999.0,80,-99.99,,,0.11,146,weatherlink.com 1.10,2015-08-27 22:27:00,
2015-08-27 18:42:00,82.0,76.0,29.90,SE,144,0.0,-999.0,82,-99.99,,,0.11,86,weatherlink.com 1.10,2015-08-27 22:42:00,
2015-08-27 18:57:00,81.6,76.0,29.90,SE,136,0.0,-999.0,82,-99.99,,,0.11,155,weatherlink.com 1.10,2015-08-27 22:57:00,
2015-08-27 19:12:00,81.4,75.0,29.90,South,178,0.0,-999.0,82,-99.99,,,0.11,63,weatherlink.com 1.10,2015-08-27 23:12:00,
2015-08-27 19:27:00,81.1,76.0,29.90,NW,325,0.0,-999.0,84,-99.99,,,0.11,39,weatherlink.com 1.10,2015-08-27 23:27:00,
2015-08-27 19:42:00,80.3,76.0,29.91,West,265,0.0,-999.0,86,-99.99,,,0.11,28,weatherlink.com 1.10,2015-08-27 23:42:00,
2015-08-27 19:57:00,79.6,76.0,29.92,ENE,78,0.0,-999.0,88,-99.99,,,0.11,5,weatherlink.com 1.10,2015-08-27 23:57:00,
2015-08-27 20:12:00,78.6,76.0,29.92,ENE,78,0.0,-999.0,90,-99.99,,,0.11,0,weatherlink.com 1.10,2015-08-28 00:12:00,
2015-08-27 20:29:00,77.9,75.0,29.91,ENE,78,0.0,-999.0,91,-99.99,,,0.11,0,weatherlink.com 1.10,2015-08-28 00:29:00,
2015-08-27 20:42:00,77.4,75.0,29.92,ENE,78,0.0,-999.0,92,-99.99,,,0.11,0,weatherlink.com 1.10,2015-08-28 00:42:00,
2015-08-27 20:57:00,76.8,74.0,29.92,ENE,78,0.0,-999.0,92,-99.99,,,0.11,0,weatherlink.com 1.10,2015-08-28 00:57:00,
2015-08-27 21:12:00,76.5,75.0,29.92,ENE,78,0.0,-999.0,94,-99.99,,,0.11,0,weatherlink.com 1.10,2015-08-28 01:12:00,
2015-08-27 21:27:00,76.1,74.0,29.92,ENE,78,0.0,-999.0,94,-99.99,,,0.11,0,weatherlink.com 1.10,2015-08-28 01:27:00,
2015-08-27 21:42:00,75.8,74.0,29.93,ENE,78,0.0,-999.0,95,-99.99,,,0.11,0,weatherlink.com 1.10,2015-08-28 01:42:00,
2015-08-27 21:57:00,75.4,74.0,29.94,ENE,78,0.0,-999.0,96,-99.99,,,0.11,0,weatherlink.com 1.10,2015-08-28 01:57:00,
2015-08-27 22:12:00,75.1,74.0,29.95,ENE,78,0.0,-999.0,97,-99.99,,,0.11,0,weatherlink.com 1.10,2015-08-28 02:12:00,
2015-08-27 22:27:00,74.9,74.0,29.95,ENE,78,0.0,-999.0,97,-99.99,,,0.11,0,weatherlink.com 1.10,2015-08-28 02:27:00,
2015-08-27 22:42:00,74.4,74.0,29.95,ENE,78,0.0,-999.0,97,-99.99,,,0.11,0,weatherlink.com 1.10,2015-08-28 02:42:00,
2015-08-27 22:57:00,74.2,73.0,29.95,ENE,78,0.0,-999.0,96,-99.99,,,0.11,0,weatherlink.com 1.10,2015-08-28 02:57:00,
2015-08-27 23:12:00,74.0,73.0,29.96,ENE,78,0.0,-999.0,97,-99.99,,,0.11,0,weatherlink.com 1.10,2015-08-28 03:12:00,
2015-08-27 23:27:00,73.7,73.0,29.97,ENE,78,0.0,-999.0,97,-99.99,,,0.11,0,weatherlink.com 1.10,2015-08-28 03:27:00,
2015-08-27 23:42:00,73.3,73.0,29.97,ENE,78,0.0,-999.0,98,-99.99,,,0.11,0,weatherlink.com 1.10,2015-08-28 03:42:00,